Time;durP1;ratioP1;P1;durP2;ratioP2;P2;SDS_P1;SDS_P2;PMS_P1;PMS_P2;Temp;Humidity;BMP_temperature;BMP_pressure;BME280_temperature;BME280_humidity;BME280_pressure;Samples;Min_cycle;Max_cycle;Signal;HPM_P1;HPM_P2
2022/05/18 00:02:25;;;;;;;1.85;1.23;;;;;;;18.29;41.59;98567.91;5156648;27;20042;-66
2022/05/18 00:04:51;;;;;;;2.20;1.17;;;;;;;18.30;41.45;98571.41;5145648;27;20479;-65
2022/05/18 00:07:16;;;;;;;2.80;1.33;;;;;;;18.30;41.48;98576.75;5135566;27;20051;-65
2022/05/18 00:09:42;;;;;;;1.20;1.00;;;;;;;18.32;41.44;98584.59;5145040;27;20031;-66
2022/05/18 00:12:09;;;;;;;1.65;1.10;;;;;;;18.33;41.41;98583.56;5155640;27;20094;-66
2022/05/18 00:14:35;;;;;;;1.38;1.00;;;;;;;18.29;41.19;98578.63;5155469;27;20035;-66
2022/05/18 00:17:03;;;;;;;1.80;1.20;;;;;;;18.31;41.07;98583.78;5156275;27;20034;-66
2022/05/18 00:19:30;;;;;;;2.03;1.10;;;;;;;18.30;41.23;98582.97;5156382;27;20037;-66
2022/05/18 00:21:55;;;;;;;2.45;1.30;;;;;;;18.31;41.04;98581.09;5156312;27;20109;-66
2022/05/18 00:24:21;;;;;;;1.80;1.00;;;;;;;18.32;41.18;98590.78;5156876;27;20110;-66
2022/05/18 00:26:47;;;;;;;3.05;1.25;;;;;;;18.30;40.96;98580.28;5157004;27;20031;-66
2022/05/18 00:29:12;;;;;;;2.78;1.20;;;;;;;18.32;40.85;98589.94;5156486;27;20031;-66
2022/05/18 00:31:40;;;;;;;1.63;1.10;;;;;;;18.32;41.01;98590.78;5156897;27;20485;-66
2022/05/18 00:34:05;;;;;;;1.25;0.88;;;;;;;18.31;40.81;98597.16;5151656;27;20030;-66
2022/05/18 00:36:31;;;;;;;4.60;1.23;;;;;;;18.31;40.66;98602.50;5135853;27;20032;-66
2022/05/18 00:38:56;;;;;;;2.15;1.10;;;;;;;18.32;40.75;98604.16;5141556;27;20394;-66
2022/05/18 00:41:23;;;;;;;2.13;1.10;;;;;;;18.30;40.75;98601.69;5156044;27;20041;-66
2022/05/18 00:43:51;;;;;;;11.73;2.45;;;;;;;18.31;40.47;98602.50;5156116;27;20098;-66
2022/05/18 00:46:17;;;;;;;1.45;1.02;;;;;;;18.29;40.52;98597.38;5156657;27;20022;-66
2022/05/18 00:48:43;;;;;;;1.95;1.20;;;;;;;18.32;40.65;98604.16;5156189;27;20370;-66
2022/05/18 00:51:22;;;;;;;1.75;1.20;;;;;;;18.31;40.52;98605.19;5156162;27;20037;-66
2022/05/18 00:53:53;;;;;;;5.20;1.33;;;;;;;18.30;40.45;98604.38;5155656;27;20034;-66
2022/05/18 00:56:25;;;;;;;;;;;;;;;18.26;40.79;98615.66;5156186;27;20046;-66
2022/05/18 00:59:01;;;;;;;3.40;1.02;;;;;;;18.27;40.69;98612.78;5155964;27;19926;-66
2022/05/18 01:01:28;;;;;;;2.33;1.10;;;;;;;18.28;40.60;98613.59;5156643;27;20038;-66
2022/05/18 01:03:55;;;;;;;1.60;1.00;;;;;;;18.28;40.53;98622.50;5156075;27;20023;-67
2022/05/18 01:06:38;;;;;;;1.63;0.85;;;;;;;18.28;40.35;98609.09;5155930;27;20397;-66
2022/05/18 01:09:09;;;;;;;2.10;1.00;;;;;;;18.28;40.27;98624.31;5155068;27;20058;-66
2022/05/18 01:11:35;;;;;;;;;;;;;;;18.22;40.79;98619.75;5156327;27;20138;-66
2022/05/18 01:14:03;;;;;;;1.30;0.90;;;;;;;18.24;40.61;98618.53;5155208;27;19918;-66
2022/05/18 01:16:29;;;;;;;3.53;0.93;;;;;;;18.25;40.15;98630.91;5155525;27;20057;-66
2022/05/18 01:18:57;;;;;;;4.25;0.98;;;;;;;18.26;40.13;98629.88;5154872;27;20030;-67
2022/05/18 01:21:30;;;;;;;2.33;1.20;;;;;;;18.27;40.16;98633.38;5155639;27;20030;-66
2022/05/18 01:24:28;;;;;;;1.60;1.05;;;;;;;18.26;40.23;98640.59;5155754;27;20101;-67
2022/05/18 01:26:55;;;;;;;1.30;0.88;;;;;;;18.25;39.97;98644.28;5137438;27;20031;-66
2022/05/18 01:29:23;;;;;;;1.35;0.90;;;;;;;18.26;40.01;98645.94;5142840;27;20532;-66
2022/05/18 01:31:57;;;;;;;2.13;1.00;;;;;;;18.27;39.85;98650.28;5155440;27;20033;-66
2022/05/18 01:34:29;;;;;;;1.98;0.80;;;;;;;18.27;39.96;98652.13;5155073;27;20038;-66
2022/05/18 01:36:54;;;;;;;1.25;0.90;;;;;;;18.27;40.06;98646.75;5166646;27;20082;-66
2022/05/18 01:39:59;;;;;;;1.80;0.75;;;;;;;18.28;39.79;98649.25;5163405;27;20035;-66
2022/05/18 01:42:33;;;;;;;2.00;1.10;;;;;;;18.27;39.81;98657.47;5049346;28;20133;-66
2022/05/18 01:44:59;;;;;;;1.80;1.02;;;;;;;18.27;39.78;98666.34;5118986;27;20031;-66
2022/05/18 01:47:25;;;;;;;3.08;1.00;;;;;;;18.27;39.82;98666.34;5134952;27;20038;-66
2022/05/18 01:49:53;;;;;;;3.78;0.98;;;;;;;18.29;39.65;98675.03;5136874;27;20379;-66
2022/05/18 01:52:19;;;;;;;1.15;0.80;;;;;;;18.28;39.91;98670.69;5151947;27;20426;-66
2022/05/18 01:54:47;;;;;;;1.40;0.82;;;;;;;18.30;39.62;98675.84;5154687;27;20073;-66
2022/05/18 01:57:13;;;;;;;1.27;0.70;;;;;;;18.31;39.70;98677.50;5155170;27;20483;-67
2022/05/18 01:59:39;;;;;;;1.20;0.80;;;;;;;18.33;39.59;98682.66;5154360;27;20062;-66
2022/05/18 02:02:06;;;;;;;1.77;0.98;;;;;;;18.33;39.49;98682.66;5154869;27;20022;-66
2022/05/18 02:04:34;;;;;;;1.05;0.65;;;;;;;18.34;39.62;98689.66;5154387;27;20038;-66
2022/05/18 02:07:01;;;;;;;2.47;1.00;;;;;;;18.36;39.51;98690.31;5154102;27;20599;-66
2022/05/18 02:09:28;;;;;;;2.10;0.80;;;;;;;18.36;39.46;98688.47;5154691;27;20030;-66
2022/05/18 02:11:54;;;;;;;2.42;0.90;;;;;;;18.38;39.32;98698.97;5155020;27;20041;-66
2022/05/18 02:14:21;;;;;;;2.63;0.93;;;;;;;18.40;39.24;98700.44;5151526;27;20113;-67
2022/05/18 02:16:47;;;;;;;4.13;1.20;;;;;;;18.41;39.37;98703.97;5152832;27;20055;-67
2022/05/18 02:19:12;;;;;;;2.28;0.88;;;;;;;18.42;39.36;98706.44;5154772;27;20022;-67
2022/05/18 02:21:38;;;;;;;1.40;0.88;;;;;;;18.43;39.29;98708.09;5154848;27;20018;-67
2022/05/18 02:24:03;;;;;;;1.20;0.80;;;;;;;18.44;39.25;98708.94;5154185;27;20388;-67
2022/05/18 02:26:30;;;;;;;4.22;1.13;;;;;;;18.47;39.31;98719.25;5154710;27;20041;-67
2022/05/18 02:28:56;;;;;;;3.70;0.90;;;;;;;18.49;39.23;98711.84;5154405;27;20027;-66
2022/05/18 02:31:21;;;;;;;2.38;0.70;;;;;;;18.54;39.37;98717.47;5154667;27;20435;-66
2022/05/18 02:33:47;;;;;;;2.80;0.93;;;;;;;18.59;39.23;98720.41;5149191;27;20066;-66
2022/05/18 02:36:13;;;;;;;2.92;0.82;;;;;;;18.63;39.36;98720.00;5139091;27;20030;-66
2022/05/18 02:38:40;;;;;;;1.52;0.73;;;;;;;18.66;39.64;98719.63;5154515;27;20378;-66
2022/05/18 02:41:07;;;;;;;1.00;0.80;;;;;;;18.69;39.08;98727.28;5154605;27;20434;-66
2022/05/18 02:43:37;;;;;;;3.28;0.80;;;;;;;18.72;39.01;98730.38;5153374;27;20087;-66
2022/05/18 02:46:15;;;;;;;2.22;0.95;;;;;;;18.75;39.28;98748.75;5153959;27;20035;-66
2022/05/18 02:48:41;;;;;;;4.03;0.90;;;;;;;18.77;39.19;98740.50;5153958;27;20106;-66
2022/05/18 02:51:08;;;;;;;1.95;0.80;;;;;;;18.76;39.37;98746.91;5154501;27;20030;-66
2022/05/18 02:53:34;;;;;;;3.55;0.80;;;;;;;18.78;39.22;98742.19;5153715;27;20062;-66
2022/05/18 02:56:06;;;;;;;2.75;0.80;;;;;;;18.79;39.06;98749.19;5154413;27;20065;-67
2022/05/18 02:58:46;;;;;;;1.88;0.55;;;;;;;18.80;38.83;98748.19;5140095;27;20396;-66
2022/05/18 03:01:15;;;;;;;0.70;0.60;;;;;;;18.82;38.98;98748.81;5153994;27;20493;-65
2022/05/18 03:03:40;;;;;;;2.00;1.27;;;;;;;18.84;38.81;98756.66;5151975;27;20122;-66
2022/05/18 03:06:09;;;;;;;2.47;0.82;;;;;;;18.87;38.79;98756.25;5153433;27;20454;-66
2022/05/18 03:08:36;;;;;;;1.95;0.70;;;;;;;18.91;38.86;98747.63;5153822;27;20034;-66
2022/05/18 03:11:02;;;;;;;0.95;0.60;;;;;;;18.98;38.81;98752.25;5154523;27;20045;-66
2022/05/18 03:13:28;;;;;;;1.70;0.43;;;;;;;19.13;38.57;98766.41;5153648;27;20032;-66
2022/05/18 03:15:54;;;;;;;0.95;0.65;;;;;;;19.27;38.49;98753.06;5153846;27;20518;-66
2022/05/18 03:18:20;;;;;;;1.73;0.60;;;;;;;19.49;38.22;98762.69;5154781;27;20029;-66
2022/05/18 03:23:35;;;;;;;2.88;0.65;;;;;;;19.93;37.70;98765.19;5157626;27;20049;-66
2022/05/18 03:26:12;;;;;;;1.77;0.70;;;;;;;20.13;37.76;98768.78;5157769;27;20126;-66
2022/05/18 03:28:40;;;;;;;1.95;0.82;;;;;;;20.19;37.77;98780.56;5157577;27;20030;-66
2022/05/18 03:31:07;;;;;;;1.17;0.70;;;;;;;20.20;38.02;98773.34;5158349;27;20038;-66
2022/05/18 03:33:34;;;;;;;2.20;0.73;;;;;;;20.24;37.80;98786.16;5157887;27;20125;-67
2022/05/18 03:36:00;;;;;;;0.85;0.60;;;;;;;20.29;37.60;98785.56;5154796;27;20125;-66
2022/05/18 03:38:26;;;;;;;1.60;0.73;;;;;;;20.32;37.47;98782.47;5140485;27;20077;-66
2022/05/18 03:40:52;;;;;;;1.13;0.55;;;;;;;20.37;37.42;98781.84;5157892;27;20061;-64
2022/05/18 03:43:19;;;;;;;5.10;0.80;;;;;;;20.43;37.44;98792.63;5157585;27;20094;-66
2022/05/18 03:45:45;;;;;;;2.38;0.70;;;;;;;20.47;37.23;98795.72;5157861;27;20449;-66
2022/05/18 03:48:11;;;;;;;1.83;0.75;;;;;;;20.52;37.01;98797.78;5157181;27;20038;-66
2022/05/18 03:50:42;;;;;;;2.78;0.90;;;;;;;20.55;36.83;98792.00;5157268;27;20038;-67
2022/05/18 03:53:08;;;;;;;2.03;0.70;;;;;;;20.55;37.04;98794.69;5157235;27;20057;-67
2022/05/18 03:55:36;;;;;;;3.67;0.68;;;;;;;20.55;36.80;98797.38;5156735;27;20516;-66
2022/05/18 03:58:02;;;;;;;1.00;0.63;;;;;;;20.56;36.84;98797.19;5157105;27;20041;-66
2022/05/18 04:00:28;;;;;;;1.88;0.70;;;;;;;20.54;36.85;98804.63;5156904;27;20038;-66
2022/05/18 04:02:53;;;;;;;2.22;0.80;;;;;;;20.54;36.91;98817.22;5157402;27;20034;-66
2022/05/18 04:05:20;;;;;;;1.52;0.85;;;;;;;20.51;37.03;98804.22;5157069;27;20540;-66
2022/05/18 04:07:46;;;;;;;2.58;0.73;;;;;;;20.47;37.19;98811.84;5157164;27;20058;-66
2022/05/18 04:10:14;;;;;;;1.02;0.40;;;;;;;20.45;36.98;98808.53;5157381;27;20027;-67
2022/05/18 04:12:39;;;;;;;0.90;0.63;;;;;;;20.41;37.22;98809.97;5156771;27;20061;-67
2022/05/18 04:15:05;;;;;;;1.00;0.55;;;;;;;20.43;36.86;98814.13;5156935;27;20050;-67
2022/05/18 04:17:31;;;;;;;1.17;0.60;;;;;;;20.47;36.55;98813.72;5157248;27;20023;-66
2022/05/18 04:19:56;;;;;;;1.33;0.60;;;;;;;20.47;36.93;98821.78;5156882;27;20161;-67
2022/05/18 04:22:23;;;;;;;2.28;0.70;;;;;;;20.52;36.72;98824.66;5156776;27;20030;-66
2022/05/18 04:24:50;;;;;;;1.42;0.90;;;;;;;20.66;36.26;98823.66;5156503;27;20466;-66
2022/05/18 04:27:16;;;;;;;2.03;0.80;;;;;;;20.85;36.03;98824.78;5137705;27;20070;-66
2022/05/18 04:29:42;;;;;;;1.27;0.47;;;;;;;21.08;35.63;98838.84;5149821;27;20125;-66
2022/05/18 04:32:08;;;;;;;1.00;0.75;;;;;;;21.30;35.57;98844.84;5156764;27;20549;-66
2022/05/18 04:34:34;;;;;;;0.95;0.57;;;;;;;21.55;35.06;98833.44;5156232;27;20544;-66
2022/05/18 04:37:00;;;;;;;2.90;1.10;;;;;;;21.79;34.82;98843.53;5168305;27;20062;-66
2022/05/18 04:39:25;;;;;;;6.30;0.80;;;;;;;22.01;34.52;98835.19;5177215;27;20133;-64
2022/05/18 04:41:51;;;;;;;1.80;0.77;;;;;;;22.20;34.28;98843.41;5158103;27;20035;-66
2022/05/18 04:44:17;;;;;;;2.67;0.70;;;;;;;22.34;34.57;98849.56;5147297;27;20034;-64
2022/05/18 04:46:43;;;;;;;3.55;1.00;;;;;;;22.46;34.31;98845.16;5156118;27;20054;-64
2022/05/18 04:49:12;;;;;;;1.65;0.82;;;;;;;22.55;34.46;98849.28;5156435;27;20073;-64
2022/05/18 04:51:37;;;;;;;3.35;0.75;;;;;;;22.63;34.52;98856.28;5156409;27;20073;-66
2022/05/18 04:54:03;;;;;;;2.83;0.85;;;;;;;22.71;34.65;98866.00;5154991;27;20058;-64
2022/05/18 04:56:29;;;;;;;2.75;0.82;;;;;;;22.79;34.83;98868.41;5155945;27;20095;-65
2022/05/18 04:58:55;;;;;;;2.30;1.40;;;;;;;22.84;35.00;98859.66;5155803;27;20073;-64
2022/05/18 05:01:20;;;;;;;3.38;1.02;;;;;;;22.89;35.17;98862.56;5156259;27;20033;-64
2022/05/18 05:03:46;;;;;;;4.05;0.90;;;;;;;22.93;34.94;98871.03;5155175;27;20572;-65
2022/05/18 05:06:12;;;;;;;0.77;0.45;;;;;;;22.95;34.95;98866.25;5156539;27;20034;-65
2022/05/18 05:08:39;;;;;;;1.40;0.60;;;;;;;22.97;35.11;98869.56;5155718;27;20035;-64
2022/05/18 05:11:06;;;;;;;1.40;0.60;;;;;;;22.98;35.12;98874.72;5156083;27;20061;-64
2022/05/18 05:13:33;;;;;;;0.55;0.50;;;;;;;23.00;35.46;98869.94;5155313;27;20034;-64
2022/05/18 05:16:05;;;;;;;1.55;0.63;;;;;;;23.01;35.23;98871.59;5141233;27;20054;-64
2022/05/18 05:18:30;;;;;;;0.65;0.40;;;;;;;23.01;35.29;98877.00;5154934;27;20034;-64
2022/05/18 05:20:56;;;;;;;0.68;0.43;;;;;;;23.00;35.60;98879.91;5155332;27;20393;-65
2022/05/18 05:23:24;;;;;;;0.98;0.63;;;;;;;22.99;35.55;98884.47;5155461;27;20037;-65
2022/05/18 05:25:50;;;;;;;1.83;0.70;;;;;;;22.99;35.48;98881.78;5136889;27;20409;-65
2022/05/18 05:28:15;;;;;;;0.93;0.50;;;;;;;22.98;35.69;98882.81;5154936;27;20418;-65
2022/05/18 05:30:41;;;;;;;0.82;0.63;;;;;;;22.98;35.92;98890.09;5154913;27;20038;-65
2022/05/18 05:33:06;;;;;;;3.33;0.70;;;;;;;22.94;35.59;98880.78;5155161;27;20041;-65
2022/05/18 05:35:32;;;;;;;0.57;0.40;;;;;;;22.96;35.63;98892.19;5155926;27;20039;-65
2022/05/18 05:37:57;;;;;;;1.23;0.60;;;;;;;22.93;35.46;98885.34;5175665;27;20030;-65
2022/05/18 05:40:23;;;;;;;1.98;0.80;;;;;;;22.93;35.32;98889.91;5156526;27;20083;-65
2022/05/18 05:42:48;;;;;;;0.77;0.40;;;;;;;22.90;35.44;98884.94;5155218;27;20481;-65
2022/05/18 05:45:14;;;;;;;1.00;0.43;;;;;;;22.89;35.49;98883.28;5155465;27;20022;-65
2022/05/18 05:47:39;;;;;;;1.52;0.90;;;;;;;22.89;35.14;98894.06;5155295;27;20026;-65
2022/05/18 05:50:06;;;;;;;4.65;0.73;;;;;;;22.89;34.90;98889.53;5154920;27;20034;-65
2022/05/18 05:52:31;;;;;;;2.08;0.80;;;;;;;22.88;34.80;98892.41;5155267;27;20408;-66
2022/05/18 05:54:59;;;;;;;4.93;0.60;;;;;;;22.89;34.59;98886.00;5154489;27;20039;-65
2022/05/18 05:57:25;;;;;;;2.15;0.57;;;;;;;22.90;34.81;98895.72;5125927;27;20104;-65
2022/05/18 05:59:50;;;;;;;2.35;0.75;;;;;;;22.89;34.71;98894.91;5147327;27;20034;-64
2022/05/18 06:02:16;;;;;;;2.17;0.90;;;;;;;22.86;34.55;98890.78;5154990;27;20061;-64
2022/05/18 06:04:42;;;;;;;1.67;0.90;;;;;;;22.88;34.57;98900.50;5146091;27;20083;-65
2022/05/18 06:07:09;;;;;;;1.52;0.68;;;;;;;22.85;34.63;98897.22;5133847;27;20031;-65
2022/05/18 06:09:35;;;;;;;1.58;0.70;;;;;;;22.82;34.93;98894.97;5147552;27;20046;-65
2022/05/18 06:12:01;;;;;;;0.82;0.55;;;;;;;22.80;34.48;98901.59;5154652;27;20038;-65
2022/05/18 06:14:26;;;;;;;5.57;1.00;;;;;;;22.74;34.52;98900.59;5154457;27;20043;-65
2022/05/18 06:16:52;;;;;;;5.10;0.90;;;;;;;22.72;34.35;98899.97;5154627;27;20565;-65
2022/05/18 06:19:18;;;;;;;2.10;0.73;;;;;;;22.66;34.20;98896.28;5154429;27;20117;-65
2022/05/18 06:21:44;;;;;;;1.60;0.80;;;;;;;22.64;34.41;98897.56;5154747;27;20030;-65
2022/05/18 06:24:10;;;;;;;2.13;0.60;;;;;;;22.60;33.93;98905.25;5154582;27;20495;-65
2022/05/18 06:26:36;;;;;;;1.85;0.90;;;;;;;22.58;33.64;98899.25;5151299;27;20027;-65
2022/05/18 06:29:03;;;;;;;2.40;0.50;;;;;;;22.55;33.33;98905.91;5133689;27;20026;-65
2022/05/18 06:31:29;;;;;;;3.97;0.80;;;;;;;22.53;33.33;98905.28;5133962;27;20030;-65
2022/05/18 06:33:55;;;;;;;1.27;0.70;;;;;;;22.51;33.39;98915.44;5133450;27;20057;-65
2022/05/18 06:36:20;;;;;;;3.67;0.80;;;;;;;22.48;33.75;98905.09;5133297;27;20062;-65
2022/05/18 06:38:46;;;;;;;2.08;1.10;;;;;;;22.47;33.73;98916.09;5133451;27;20054;-65
2022/05/18 06:41:23;;;;;;;1.50;0.65;;;;;;;22.45;33.59;98924.38;5133854;27;20034;-65
2022/05/18 06:43:58;;;;;;;1.98;0.65;;;;;;;22.43;33.43;98912.97;5115766;27;20042;-65
2022/05/18 06:46:26;;;;;;;2.22;0.60;;;;;;;22.40;33.68;98916.09;5154437;27;20035;-65
2022/05/18 06:48:52;;;;;;;4.97;0.50;;;;;;;22.38;33.47;98916.28;5154045;27;20046;-65
2022/05/18 06:51:23;;;;;;;2.67;0.93;;;;;;;22.35;33.50;98922.09;5135499;27;20461;-65
2022/05/18 06:53:51;;;;;;;1.02;0.70;;;;;;;22.35;33.20;98927.50;5155139;27;20026;-65
2022/05/18 06:56:19;;;;;;;1.88;0.43;;;;;;;22.33;33.57;98929.59;5159026;27;20635;-65
2022/05/18 06:58:47;;;;;;;2.05;0.65;;;;;;;22.33;32.81;98923.38;5158592;27;20030;-65
2022/05/18 07:01:13;;;;;;;4.22;0.60;;;;;;;22.30;32.73;98932.72;5158639;27;20053;-65
2022/05/18 07:03:39;;;;;;;1.52;0.60;;;;;;;22.27;32.68;98933.13;5157238;27;20105;-66
2022/05/18 07:06:05;;;;;;;0.60;0.45;;;;;;;22.24;32.73;98931.69;5158066;27;20512;-66
2022/05/18 07:08:31;;;;;;;1.67;0.57;;;;;;;22.22;32.69;98939.16;5158373;27;20047;-66
2022/05/18 07:10:57;;;;;;;0.63;0.40;;;;;;;22.20;33.01;98941.22;5158428;27;20038;-66
2022/05/18 07:13:22;;;;;;;0.30;0.30;;;;;;;22.20;33.32;98943.94;5158630;27;20030;-66
2022/05/18 07:15:48;;;;;;;1.80;0.98;;;;;;;22.20;32.92;98938.53;5155943;27;20051;-66
2022/05/18 07:18:14;;;;;;;0.73;0.35;;;;;;;22.19;32.55;98944.16;5141322;27;20072;-65
2022/05/18 07:20:40;;;;;;;1.10;0.50;;;;;;;22.17;31.99;98951.63;5158312;27;20053;-65
2022/05/18 07:23:06;;;;;;;0.88;0.40;;;;;;;22.15;31.59;98946.41;5156898;27;20031;-65
2022/05/18 07:25:32;;;;;;;3.22;0.50;;;;;;;22.12;31.58;98948.72;5139601;27;20055;-65
2022/05/18 07:27:57;;;;;;;4.07;0.50;;;;;;;22.08;31.34;98935.66;5157710;27;20035;-65
2022/05/18 07:30:23;;;;;;;0.60;0.38;;;;;;;22.08;31.60;98940.22;5158162;27;20035;-65
2022/05/18 07:32:48;;;;;;;1.48;0.40;;;;;;;22.06;31.16;98945.00;5157819;27;20389;-65
2022/05/18 07:35:14;;;;;;;1.65;0.50;;;;;;;22.04;31.36;98944.38;5142087;27;20385;-65
2022/05/18 07:37:39;;;;;;;0.60;0.32;;;;;;;22.02;31.11;98941.91;5154603;27;20109;-66
2022/05/18 07:40:06;;;;;;;1.95;0.43;;;;;;;21.99;31.14;98942.31;5156750;27;20415;-65
2022/05/18 07:42:33;;;;;;;1.55;0.52;;;;;;;21.99;31.40;98949.56;5157903;27;20023;-65
2022/05/18 07:44:58;;;;;;;0.85;0.85;;;;;;;21.99;30.95;98944.16;5157635;27;20030;-65
2022/05/18 07:47:32;;;;;;;5.88;0.85;;;;;;;21.95;31.13;98944.63;5157750;27;20039;-65
2022/05/18 07:49:58;;;;;;;0.77;0.35;;;;;;;21.92;30.72;98945.03;5156869;27;20081;-66
2022/05/18 07:52:24;;;;;;;1.60;0.47;;;;;;;21.91;30.88;98937.97;5157365;27;20027;-65
2022/05/18 07:54:50;;;;;;;0.73;0.52;;;;;;;21.88;30.80;98941.09;5157429;27;20081;-65
2022/05/18 07:57:17;;;;;;;3.50;0.60;;;;;;;21.86;30.15;98953.94;5157640;27;20110;-65
2022/05/18 07:59:42;;;;;;;0.90;0.60;;;;;;;21.84;30.38;98945.22;5156692;27;20035;-65
2022/05/18 08:02:07;;;;;;;0.93;0.30;;;;;;;21.83;30.72;98953.53;5157355;27;20030;-65
2022/05/18 08:04:33;;;;;;;1.40;0.50;;;;;;;21.81;30.79;98948.38;5156403;27;20027;-66
2022/05/18 08:06:59;;;;;;;2.40;0.40;;;;;;;21.79;31.02;98942.34;5157216;27;20031;-66
2022/05/18 08:09:24;;;;;;;0.98;0.40;;;;;;;21.78;30.74;98954.97;5157093;27;20476;-65
2022/05/18 08:17:19;;;;;;;0.82;0.50;;;;;;;21.74;30.94;98958.28;5136781;27;20042;-65
2022/05/18 08:19:46;;;;;;;1.38;0.40;;;;;;;21.72;31.30;98961.22;5148093;27;20442;-65
2022/05/18 08:22:12;;;;;;;1.58;1.17;;;;;;;21.71;31.44;98959.56;5156365;27;20366;-66
2022/05/18 08:24:37;;;;;;;1.27;0.60;;;;;;;21.70;31.58;98963.28;5156658;27;20041;-65
2022/05/18 08:27:11;;;;;;;1.40;0.60;;;;;;;21.70;31.86;98959.75;5156617;27;20045;-65
2022/05/18 08:29:37;;;;;;;4.10;0.50;;;;;;;21.70;32.27;98963.28;5156215;27;20439;-65
2022/05/18 08:32:04;;;;;;;0.80;0.40;;;;;;;21.69;32.32;98961.63;5156570;27;20039;-65
2022/05/18 08:34:29;;;;;;;1.85;0.50;;;;;;;21.68;31.89;98978.00;5156499;27;20121;-66
2022/05/18 08:36:55;;;;;;;0.77;0.40;;;;;;;21.69;31.67;98980.47;5167656;27;20130;-67
2022/05/18 08:39:20;;;;;;;1.15;0.50;;;;;;;21.64;31.36;98970.31;5165611;27;20038;-66
2022/05/18 08:41:49;;;;;;;0.65;0.30;;;;;;;21.66;31.03;98969.28;5156731;27;20045;-64
2022/05/18 08:44:36;;;;;;;1.27;0.38;;;;;;;21.63;31.12;98982.13;5156185;27;20542;-67
2022/05/18 08:47:27;;;;;;;1.67;0.68;;;;;;;21.62;31.19;98968.84;5155522;27;20034;-64
2022/05/18 08:49:58;;;;;;;1.77;0.40;;;;;;;21.59;31.32;98961.19;5156477;27;20049;-66
2022/05/18 08:52:45;;;;;;;1.45;0.60;;;;;;;21.57;31.16;98964.06;5156192;27;20034;-66
2022/05/18 08:55:10;;;;;;;0.73;0.40;;;;;;;21.57;31.79;98968.63;5155906;27;20027;-66
2022/05/18 08:57:46;;;;;;;0.80;0.47;;;;;;;21.57;31.07;98968.63;5143616;27;20045;-66
2022/05/18 09:00:14;;;;;;;1.25;0.85;;;;;;;21.55;31.04;98982.28;5151428;27;20042;-66
2022/05/18 09:02:41;;;;;;;1.05;0.50;;;;;;;21.54;31.13;98974.44;5155619;27;20118;-66
2022/05/18 09:05:10;;;;;;;1.75;0.30;;;;;;;21.55;31.24;98970.69;5155438;27;20035;-66
2022/05/18 09:07:53;;;;;;;1.08;0.40;;;;;;;21.53;31.51;98976.31;5154947;27;20054;-65
2022/05/18 09:10:35;;;;;;;0.82;0.40;;;;;;;21.52;31.74;98974.63;5149841;27;20035;-62
2022/05/18 09:13:01;;;;;;;2.67;0.43;;;;;;;21.47;32.22;98972.53;5152150;27;20121;-66
2022/05/18 09:15:54;;;;;;;1.48;0.50;;;;;;;21.46;31.90;98972.75;5152215;27;20082;-63
2022/05/18 09:18:38;;;;;;;4.25;0.35;;;;;;;21.40;32.24;98960.13;5154017;27;20066;-63
2022/05/18 09:21:07;;;;;;;56.90;4.22;;;;;;;21.36;32.91;98967.78;5152917;27;20034;-64
2022/05/18 09:23:55;;;;;;;2.15;0.80;;;;;;;21.33;32.27;98957.41;5154392;27;20049;-63
2022/05/18 09:26:29;;;;;;;8.30;2.85;;;;;;;21.29;33.61;98965.09;5135826;27;20035;-66
2022/05/18 09:29:08;;;;;;;3.00;1.73;;;;;;;21.27;33.21;98956.38;5154583;27;20035;-65
2022/05/18 09:32:03;;;;;;;8.00;2.83;;;;;;;21.28;33.70;98962.59;5150966;27;20038;-65
2022/05/18 09:35:04;;;;;;;5.60;1.50;;;;;;;21.25;32.92;98961.13;5155291;27;20546;-65
2022/05/18 09:37:36;;;;;;;5.65;3.03;;;;;;;21.18;33.55;98955.75;5149010;27;20480;-66
2022/05/18 09:40:14;;;;;;;3.47;1.27;;;;;;;21.18;33.48;98961.13;5154075;27;20041;-65
2022/05/18 09:42:45;;;;;;;5.28;1.92;;;;;;;21.18;33.75;98966.50;5154860;27;20042;-66
2022/05/18 09:45:18;;;;;;;2.35;1.08;;;;;;;21.19;32.97;98970.84;5153494;27;20033;-65
2022/05/18 09:48:09;;;;;;;1.35;0.75;;;;;;;21.17;31.87;98961.34;5155435;27;20404;-66
2022/05/18 09:50:41;;;;;;;5.43;2.20;;;;;;;21.16;32.95;98968.59;5150906;27;20034;-65
2022/05/18 09:53:07;;;;;;;2.97;1.25;;;;;;;21.18;32.54;98973.75;5149203;27;20282;-65
2022/05/18 09:55:34;;;;;;;8.85;1.52;;;;;;;21.15;33.06;98966.94;5152091;27;20034;-66
2022/05/18 09:58:23;;;;;;;2.70;1.10;;;;;;;21.17;32.44;98969.41;5141376;27;20034;-66
2022/05/18 10:00:49;;;;;;;3.00;1.00;;;;;;;21.15;32.25;98974.16;5151917;27;20039;-64
2022/05/18 10:08:57;;;;;;;5.60;1.30;;;;;;;21.11;33.62;98972.91;5143446;27;20082;-64
2022/05/18 10:11:34;;;;;;;5.95;1.25;;;;;;;21.15;33.62;98966.09;5153895;27;20043;-65
2022/05/18 10:14:14;;;;;;;3.90;0.98;;;;;;;21.15;33.42;98974.16;5148279;27;20480;-65
2022/05/18 10:16:44;;;;;;;4.65;1.30;;;;;;;21.14;33.29;98969.81;5138214;27;20057;-64
2022/05/18 10:19:30;;;;;;;1.90;0.90;;;;;;;21.14;32.38;98975.19;5148249;27;20412;-64
2022/05/18 10:22:00;;;;;;;4.32;0.90;;;;;;;21.09;32.74;98956.97;5150169;27;20125;-65
2022/05/18 10:25:03;;;;;;;1.58;0.70;;;;;;;21.09;32.44;98972.31;5154430;27;20441;-65
2022/05/18 10:27:31;;;;;;;1.48;0.55;;;;;;;21.06;32.18;98965.44;5136954;27;20030;-65
2022/05/18 10:30:03;;;;;;;4.70;0.80;;;;;;;21.03;31.75;98955.09;5152773;27;20059;-65
2022/05/18 10:32:31;;;;;;;0.80;0.50;;;;;;;21.00;31.62;98967.09;5143844;27;20034;-65
2022/05/18 10:35:00;;;;;;;5.43;0.85;;;;;;;21.00;31.60;98960.91;5150644;27;20049;-67
2022/05/18 10:37:31;;;;;;;2.40;0.80;;;;;;;20.98;31.83;98954.91;5154050;27;20035;-67
2022/05/18 10:40:00;;;;;;;1.13;0.65;;;;;;;20.93;31.97;98968.94;5149651;27;20035;-65
2022/05/18 10:42:41;;;;;;;3.95;0.90;;;;;;;20.89;31.81;98962.31;5153359;27;20049;-65
2022/05/18 10:45:25;;;;;;;0.98;0.65;;;;;;;20.93;32.09;98984.25;5151729;27;20027;-66
2022/05/18 10:47:52;;;;;;;2.15;1.23;;;;;;;20.93;32.60;98968.94;5151765;27;20038;-65
2022/05/18 10:50:24;;;;;;;1.45;0.80;;;;;;;20.98;32.28;98960.28;5144063;27;20049;-65
2022/05/18 10:53:00;;;;;;;1.98;0.88;;;;;;;21.01;32.09;98967.94;5148930;27;20054;-67
2022/05/18 10:55:29;;;;;;;2.85;0.68;;;;;;;21.01;32.11;98967.94;5151205;27;20046;-66
2022/05/18 10:58:21;;;;;;;8.48;1.08;;;;;;;21.03;32.24;98963.16;5151410;27;20125;-65
2022/05/18 11:01:19;;;;;;;7.15;0.77;;;;;;;21.04;32.33;98978.28;5152431;27;20030;-66
2022/05/18 11:04:25;;;;;;;7.28;0.90;;;;;;;21.03;32.02;98980.16;5151053;27;20053;-66
2022/05/18 11:06:51;;;;;;;3.20;0.50;;;;;;;21.01;32.72;98982.22;5106562;27;20113;-66
2022/05/18 11:09:29;;;;;;;2.25;0.80;;;;;;;21.04;32.91;98976.44;5143569;27;20459;-66
2022/05/18 11:12:04;;;;;;;0.95;0.60;;;;;;;21.06;32.82;98978.09;5133493;28;20077;-66
2022/05/18 11:14:38;;;;;;;1.77;0.60;;;;;;;21.09;32.96;98977.69;5144316;27;20043;-66
2022/05/18 11:17:21;;;;;;;2.28;0.60;;;;;;;21.10;32.64;98987.41;5149762;27;20038;-66
2022/05/18 11:20:06;;;;;;;1.05;0.70;;;;;;;21.09;32.06;98983.06;5153008;27;20382;-65
2022/05/18 11:22:51;;;;;;;2.20;0.60;;;;;;;21.03;32.06;98985.53;5154331;27;20041;-66
2022/05/18 11:25:32;;;;;;;4.45;0.75;;;;;;;21.04;32.81;98976.44;5153363;27;20094;-66
2022/05/18 11:28:07;;;;;;;1.20;0.60;;;;;;;21.07;32.25;98985.13;5153242;27;20018;-66
2022/05/18 11:31:03;;;;;;;0.98;0.45;;;;;;;21.06;32.57;98978.09;5153090;27;20503;-66
2022/05/18 11:33:38;;;;;;;2.35;0.70;;;;;;;21.04;32.06;98984.50;5151410;27;20031;-66
2022/05/18 11:36:47;;;;;;;2.92;0.50;;;;;;;21.02;32.51;98981.16;5155102;27;20515;-66
2022/05/18 11:39:33;;;;;;;2.15;0.50;;;;;;;21.03;32.46;98990.06;5135156;27;20027;-66
2022/05/18 11:42:07;;;;;;;1.92;0.60;;;;;;;21.04;31.87;98981.81;5157857;27;20042;-66
2022/05/18 11:44:42;;;;;;;1.65;0.60;;;;;;;21.06;32.10;98984.28;5157478;27;20121;-66
2022/05/18 11:47:29;;;;;;;1.55;0.55;;;;;;;21.07;32.04;98980.56;5157424;27;20049;-66
2022/05/18 11:50:14;;;;;;;3.42;0.60;;;;;;;21.07;32.10;98971.69;5156219;27;20036;-66
2022/05/18 11:52:54;;;;;;;1.45;0.57;;;;;;;21.07;31.47;98980.56;5136646;27;20031;-66
2022/05/18 11:55:59;;;;;;;3.45;0.70;;;;;;;21.04;31.66;98979.13;5136765;27;20035;-66
2022/05/18 11:58:50;;;;;;;4.70;0.70;;;;;;;21.02;31.85;98977.66;5151622;27;20042;-65
2022/05/18 12:01:29;;;;;;;2.28;0.90;;;;;;;21.02;31.75;98994.63;5144827;27;20380;-66
2022/05/18 12:04:00;;;;;;;7.80;1.48;;;;;;;21.04;31.86;98984.50;5152749;27;20026;-65